Time;durP1;ratioP1;P1;durP2;ratioP2;P2;SDS_P1;SDS_P2;PMS_P1;PMS_P2;Temp;Humidity;BMP_temperature;BMP_pressure;BME280_temperature;BME280_humidity;BME280_pressure;Samples;Min_cycle;Max_cycle;Signal;HPM_P1;HPM_P2
2023/10/08 00:00:39;;;;;;;6.80;2.55;;;;;;;;;;5283284;28;20364;-77
2023/10/08 00:02:52;;;;;;;6.38;2.10;;;;;;;;;;5282052;28;20037;-78
2023/10/08 00:05:23;;;;;;;4.88;2.08;;;;;;;;;;5283125;28;20025;-78
2023/10/08 00:07:55;;;;;;;6.13;2.60;;;;;;;;;;5283091;28;20336;-78
2023/10/08 00:10:26;;;;;;;5.70;2.63;;;;;;;;;;5282216;28;20029;-77
2023/10/08 00:12:58;;;;;;;5.53;2.43;;;;;;;;;;5283292;28;20487;-77
2023/10/08 00:15:30;;;;;;;7.63;2.10;;;;;;;;;;5283071;28;20267;-77
2023/10/08 00:18:07;;;;;;;6.35;2.40;;;;;;;;;;5282099;28;20273;-77
2023/10/08 00:20:54;;;;;;;8.95;2.72;;;;;;;;;;5282954;28;20024;-78
2023/10/08 00:23:26;;;;;;;4.93;2.20;;;;;;;;;;5282221;28;20008;-78
2023/10/08 00:25:58;;;;;;;5.63;2.42;;;;;;;;;;5282842;28;20036;-78
2023/10/08 00:28:31;;;;;;;5.97;2.10;;;;;;;;;;5282551;28;20020;-77
2023/10/08 00:31:11;;;;;;;4.68;1.50;;;;;;;;;;5281623;28;20056;-78
2023/10/08 00:33:44;;;;;;;5.63;2.50;;;;;;;;;;5282461;28;20078;-77
2023/10/08 00:36:19;;;;;;;6.50;2.55;;;;;;;;;;5283008;28;20013;-77
2023/10/08 00:38:53;;;;;;;7.25;3.08;;;;;;;;;;5281680;28;20353;-77
2023/10/08 00:41:28;;;;;;;8.82;2.70;;;;;;;;;;5282505;28;20024;-77
2023/10/08 00:44:00;;;;;;;6.50;2.58;;;;;;;;;;5280996;28;20399;-77
2023/10/08 00:46:35;;;;;;;7.57;2.58;;;;;;;;;;5282380;28;20123;-77
2023/10/08 00:57:29;;;;;;;5.47;2.00;;;;;;;;;;5282460;28;20403;-77
2023/10/08 01:00:00;;;;;;;5.00;2.00;;;;;;;;;;5281352;28;20028;-78
2023/10/08 01:02:49;;;;;;;7.68;3.05;;;;;;;;;;5281932;28;20025;-77
2023/10/08 01:05:26;;;;;;;6.57;2.58;;;;;;;;;;5281366;28;20039;-77
2023/10/08 01:07:58;;;;;;;5.50;2.33;;;;;;;;;;5282174;28;20463;-77
2023/10/08 01:10:29;;;;;;;3.30;1.77;;;;;;;;;;5282048;28;20021;-77
2023/10/08 01:15:35;;;;;;;4.80;2.55;;;;;;;;;;5282214;28;20056;-78
2023/10/08 01:18:14;;;;;;;5.10;2.95;;;;;;;;;;5281962;28;20748;-77
2023/10/08 01:23:26;;;;;;;7.82;2.35;;;;;;;;;;5281867;28;19905;-78
2023/10/08 01:26:10;;;;;;;5.55;1.92;;;;;;;;;;5281875;28;20166;-77
2023/10/08 01:28:43;;;;;;;5.97;2.45;;;;;;;;;;5281809;28;20085;-78
2023/10/08 01:31:15;;;;;;;5.45;2.30;;;;;;;;;;5281690;28;20384;-78
2023/10/08 01:33:56;;;;;;;8.07;2.83;;;;;;;;;;5280439;28;20032;-78
2023/10/08 01:36:28;;;;;;;6.47;2.20;;;;;;;;;;5281917;28;20017;-79
2023/10/08 01:39:01;;;;;;;7.25;2.63;;;;;;;;;;5281532;28;20027;-78
2023/10/08 01:41:33;;;;;;;5.05;2.10;;;;;;;;;;5280809;28;20016;-78
2023/10/08 01:44:08;;;;;;;7.90;2.53;;;;;;;;;;5281489;28;20545;-77
2023/10/08 01:46:40;;;;;;;5.43;2.55;;;;;;;;;;5281433;28;20042;-77
2023/10/08 01:49:15;;;;;;;4.90;2.20;;;;;;;;;;5280717;28;20020;-77
2023/10/08 01:51:49;;;;;;;5.43;2.67;;;;;;;;;;5281315;28;20067;-78
2023/10/08 01:54:21;;;;;;;8.45;3.03;;;;;;;;;;5281037;28;20019;-77
2023/10/08 01:56:52;;;;;;;5.00;2.28;;;;;;;;;;5284623;28;20020;-77
2023/10/08 01:59:23;;;;;;;6.10;2.50;;;;;;;;;;5285568;28;20051;-77
2023/10/08 02:01:57;;;;;;;5.22;2.38;;;;;;;;;;5284979;28;20263;-78
2023/10/08 02:04:28;;;;;;;7.65;2.33;;;;;;;;;;5285523;28;20023;-78
2023/10/08 02:06:59;;;;;;;5.87;2.37;;;;;;;;;;5285609;28;20024;-77
2023/10/08 02:09:33;;;;;;;7.93;2.50;;;;;;;;;;5284768;28;20270;-78
2023/10/08 02:12:04;;;;;;;12.18;2.65;;;;;;;;;;5285719;28;20787;-77
2023/10/08 02:14:35;;;;;;;7.80;3.03;;;;;;;;;;5285407;28;20025;-78
2023/10/08 02:17:09;;;;;;;5.63;2.60;;;;;;;;;;5284448;28;20066;-77
2023/10/08 02:19:41;;;;;;;5.55;2.65;;;;;;;;;;5285113;28;20020;-77
2023/10/08 02:22:13;;;;;;;6.18;3.22;;;;;;;;;;5285196;28;20020;-77
2023/10/08 02:24:44;;;;;;;5.95;2.38;;;;;;;;;;5284394;28;20402;-77
2023/10/08 02:27:15;;;;;;;5.70;2.53;;;;;;;;;;5285251;28;20028;-77
2023/10/08 02:29:46;;;;;;;6.80;2.60;;;;;;;;;;5283840;28;20874;-78
2023/10/08 02:32:18;;;;;;;9.90;3.03;;;;;;;;;;5284990;28;20692;-78
2023/10/08 02:34:50;;;;;;;6.40;2.60;;;;;;;;;;5284796;28;20366;-77
2023/10/08 02:37:21;;;;;;;6.57;2.30;;;;;;;;;;5284518;28;20021;-77
2023/10/08 02:39:53;;;;;;;8.55;2.67;;;;;;;;;;5284674;28;20023;-78
2023/10/08 02:42:24;;;;;;;6.38;2.55;;;;;;;;;;5284911;28;20008;-77
2023/10/08 02:45:00;;;;;;;6.22;2.70;;;;;;;;;;5283933;28;20029;-77
2023/10/08 02:47:33;;;;;;;6.13;2.20;;;;;;;;;;5285353;28;20048;-78
2023/10/08 02:50:08;;;;;;;7.07;2.60;;;;;;;;;;5285225;28;20059;-77
2023/10/08 02:52:39;;;;;;;7.30;2.53;;;;;;;;;;5283958;28;20107;-79
2023/10/08 02:55:25;;;;;;;11.33;2.97;;;;;;;;;;5284531;28;20100;-77
2023/10/08 02:57:56;;;;;;;8.43;2.80;;;;;;;;;;5283842;28;20779;-78
2023/10/08 03:00:29;;;;;;;9.23;3.20;;;;;;;;;;5284393;28;20052;-78
2023/10/08 03:03:01;;;;;;;7.78;2.60;;;;;;;;;;5284350;28;20266;-77
2023/10/08 03:05:35;;;;;;;5.65;2.75;;;;;;;;;;5283441;28;20471;-77
2023/10/08 03:08:10;;;;;;;4.35;1.95;;;;;;;;;;5284010;28;20135;-78
2023/10/08 03:10:44;;;;;;;6.93;2.88;;;;;;;;;;5284463;28;20099;-77
2023/10/08 03:13:16;;;;;;;7.63;2.95;;;;;;;;;;5283781;28;20131;-77
2023/10/08 03:18:42;;;;;;;9.63;2.90;;;;;;;;;;5284536;28;20032;-77
2023/10/08 03:21:45;;;;;;;7.72;2.72;;;;;;;;;;5284225;28;20451;-77
2023/10/08 03:24:29;;;;;;;5.63;2.17;;;;;;;;;;5283851;28;20025;-77
2023/10/08 03:27:07;;;;;;;6.70;2.88;;;;;;;;;;5283368;28;20546;-78
2023/10/08 03:29:41;;;;;;;5.78;2.47;;;;;;;;;;5283979;28;20020;-78
2023/10/08 03:32:15;;;;;;;7.10;2.22;;;;;;;;;;5283711;28;20403;-78
2023/10/08 03:34:47;;;;;;;8.85;3.25;;;;;;;;;;5282761;28;20046;-78
2023/10/08 03:37:21;;;;;;;9.23;2.67;;;;;;;;;;5284284;28;20044;-77
2023/10/08 03:40:07;;;;;;;5.95;2.58;;;;;;;;;;5282812;28;20408;-78
2023/10/08 03:42:41;;;;;;;6.85;2.70;;;;;;;;;;5283780;28;20031;-77
2023/10/08 03:45:16;;;;;;;9.45;2.55;;;;;;;;;;5283599;28;20036;-78
2023/10/08 03:48:02;;;;;;;8.65;2.72;;;;;;;;;;5282638;28;20005;-78
2023/10/08 03:50:42;;;;;;;7.47;2.90;;;;;;;;;;5283629;28;20100;-78
2023/10/08 03:53:13;;;;;;;6.57;2.67;;;;;;;;;;5283640;28;20062;-78
2023/10/08 03:55:44;;;;;;;7.73;2.80;;;;;;;;;;5282351;28;20100;-78
2023/10/08 03:58:29;;;;;;;3.90;1.90;;;;;;;;;;5283733;28;20783;-79
2023/10/08 04:01:10;;;;;;;7.32;2.35;;;;;;;;;;5282400;28;20035;-78
2023/10/08 04:06:28;;;;;;;5.55;2.40;;;;;;;;;;5283709;28;20519;-79
2023/10/08 04:14:23;;;;;;;6.13;2.53;;;;;;;;;;5283305;28;20467;-79
2023/10/08 04:16:54;;;;;;;5.97;2.35;;;;;;;;;;5282283;28;20375;-78
2023/10/08 04:19:28;;;;;;;6.07;2.35;;;;;;;;;;5282180;28;20024;-78
2023/10/08 04:22:00;;;;;;;9.30;2.95;;;;;;;;;;5282359;28;20016;-78
2023/10/08 04:24:34;;;;;;;7.88;2.75;;;;;;;;;;5282828;28;20012;-78
2023/10/08 04:27:09;;;;;;;7.65;2.65;;;;;;;;;;5283165;28;20032;-79
2023/10/08 04:29:42;;;;;;;6.60;2.60;;;;;;;;;;5282017;28;20017;-79
2023/10/08 04:32:22;;;;;;;8.80;3.08;;;;;;;;;;5282546;28;20052;-79
2023/10/08 04:34:56;;;;;;;7.75;2.85;;;;;;;;;;5282157;28;20070;-80
2023/10/08 04:37:32;;;;;;;5.60;2.63;;;;;;;;;;5281669;28;20025;-79
2023/10/08 04:40:05;;;;;;;7.28;2.65;;;;;;;;;;5282617;28;20025;-79
2023/10/08 04:42:37;;;;;;;5.95;2.15;;;;;;;;;;5282302;28;20024;-78
2023/10/08 04:45:13;;;;;;;5.28;2.33;;;;;;;;;;5281338;28;20036;-79
2023/10/08 04:47:44;;;;;;;7.78;2.65;;;;;;;;;;5281912;28;20028;-79
2023/10/08 04:50:17;;;;;;;7.53;2.67;;;;;;;;;;5281858;28;20750;-79
2023/10/08 04:52:58;;;;;;;6.00;2.30;;;;;;;;;;5281889;28;20267;-78
2023/10/08 04:55:29;;;;;;;5.80;2.65;;;;;;;;;;5282125;28;20021;-78
2023/10/08 04:58:05;;;;;;;5.53;2.33;;;;;;;;;;5281023;28;20372;-78
2023/10/08 05:00:53;;;;;;;8.90;2.30;;;;;;;;;;5282073;28;20046;-78
2023/10/08 05:03:32;;;;;;;9.18;3.03;;;;;;;;;;5282066;28;20017;-78
2023/10/08 05:08:58;;;;;;;8.63;2.70;;;;;;;;;;5281748;28;20043;-77
2023/10/08 05:17:46;;;;;;;5.95;2.55;;;;;;;;;;5281915;28;20146;-77
2023/10/08 05:30:37;;;;;;;7.07;2.80;;;;;;;;;;5282041;28;20108;-77
2023/10/08 05:33:44;;;;;;;7.38;3.35;;;;;;;;;;5280972;28;20503;-77
2023/10/08 05:36:27;;;;;;;10.20;3.50;;;;;;;;;;5282044;28;20070;-77
2023/10/08 05:39:04;;;;;;;5.65;2.10;;;;;;;;;;5281786;28;20105;-77
2023/10/08 05:41:39;;;;;;;9.45;2.83;;;;;;;;;;5280926;28;20048;-77
2023/10/08 05:44:24;;;;;;;7.28;3.10;;;;;;;;;;5281539;28;20021;-77
2023/10/08 05:49:38;;;;;;;10.13;2.90;;;;;;;;;;5281704;28;20036;-78
2023/10/08 05:52:24;;;;;;;7.47;3.30;;;;;;;;;;5281388;28;20270;-77
2023/10/08 05:55:18;;;;;;;8.82;2.67;;;;;;;;;;5280519;28;20032;-77
2023/10/08 05:57:52;;;;;;;7.03;2.80;;;;;;;;;;5280951;28;20013;-78
2023/10/08 06:03:31;;;;;;;8.90;2.92;;;;;;;;;;5281294;28;20024;-77
2023/10/08 06:09:20;;;;;;;8.57;2.80;;;;;;;;;;5279795;28;20016;-79
2023/10/08 06:12:10;;;;;;;6.07;2.95;;;;;;;;;;5280624;28;20123;-80
2023/10/08 06:15:07;;;;;;;6.50;2.78;;;;;;;;;;5280524;28;20516;-79
2023/10/08 06:18:03;;;;;;;9.13;3.22;;;;;;;;;;5281211;28;20017;-80
2023/10/08 06:20:36;;;;;;;11.15;2.95;;;;;;;;;;5281212;28;20017;-80
2023/10/08 06:23:08;;;;;;;8.02;2.97;;;;;;;;;;5280472;28;20017;-80
2023/10/08 06:25:45;;;;;;;6.78;3.08;;;;;;;;;;5281174;28;20035;-80
2023/10/08 06:28:19;;;;;;;9.15;3.42;;;;;;;;;;5281210;28;20013;-79
2023/10/08 06:30:55;;;;;;;8.30;3.03;;;;;;;;;;5279666;28;20808;-79
2023/10/08 06:33:30;;;;;;;14.60;3.50;;;;;;;;;;5282399;28;20013;-80
2023/10/08 06:36:02;;;;;;;7.20;3.78;;;;;;;;;;5282502;28;20032;-80
2023/10/08 06:38:34;;;;;;;8.00;3.45;;;;;;;;;;5281614;28;20411;-80
2023/10/08 06:41:09;;;;;;;7.25;3.38;;;;;;;;;;5281646;28;20032;-78
2023/10/08 06:46:35;;;;;;;9.70;3.47;;;;;;;;;;5284516;28;20040;-77
2023/10/08 06:49:11;;;;;;;10.23;3.77;;;;;;;;;;5284650;28;20020;-79
2023/10/08 06:51:45;;;;;;;9.35;3.90;;;;;;;;;;5283790;28;20266;-79
2023/10/08 06:54:17;;;;;;;7.13;3.35;;;;;;;;;;5284847;28;20021;-79
2023/10/08 06:56:52;;;;;;;6.18;3.25;;;;;;;;;;5283223;28;20123;-79
2023/10/08 06:59:23;;;;;;;7.65;3.72;;;;;;;;;;5284698;28;20017;-80
2023/10/08 07:01:54;;;;;;;6.47;3.75;;;;;;;;;;5284425;28;20040;-79
2023/10/08 07:04:26;;;;;;;10.00;3.63;;;;;;;;;;5283599;28;20024;-79
2023/10/08 07:06:59;;;;;;;8.70;4.00;;;;;;;;;;5284235;28;20302;-78
2023/10/08 07:09:31;;;;;;;8.63;3.60;;;;;;;;;;5284093;28;20036;-79
2023/10/08 07:12:05;;;;;;;9.02;4.45;;;;;;;;;;5283335;28;20024;-78
2023/10/08 07:14:37;;;;;;;11.73;3.97;;;;;;;;;;5284154;28;20088;-78
2023/10/08 07:17:11;;;;;;;8.40;3.78;;;;;;;;;;5283959;28;20059;-78
2023/10/08 07:19:47;;;;;;;7.57;4.05;;;;;;;;;;5283235;28;20703;-78
2023/10/08 07:22:21;;;;;;;9.50;4.15;;;;;;;;;;5284307;28;20031;-78
2023/10/08 07:24:53;;;;;;;7.95;4.20;;;;;;;;;;5282746;28;20027;-78
2023/10/08 07:27:31;;;;;;;7.68;4.25;;;;;;;;;;5283714;28;20021;-78
2023/10/08 07:30:10;;;;;;;6.05;3.58;;;;;;;;;;5283767;28;20017;-78
2023/10/08 07:32:41;;;;;;;7.53;4.53;;;;;;;;;;5282826;28;20068;-77
2023/10/08 07:37:53;;;;;;;9.70;3.83;;;;;;;;;;5283312;28;20315;-77
2023/10/08 07:40:29;;;;;;;8.60;4.90;;;;;;;;;;5282745;28;20008;-78
2023/10/08 07:43:08;;;;;;;10.70;4.90;;;;;;;;;;5283700;28;20078;-79
2023/10/08 07:45:39;;;;;;;;;;;;;;;;;;5284019;28;20040;-78
2023/10/08 07:48:10;;;;;;;7.57;4.03;;;;;;;;;;5282541;28;19912;-79
2023/10/08 07:50:43;;;;;;;10.27;4.43;;;;;;;;;;5283194;28;20020;-79
2023/10/08 07:53:17;;;;;;;10.77;4.93;;;;;;;;;;5281270;28;20025;-79
2023/10/08 07:55:49;;;;;;;9.88;4.63;;;;;;;;;;5283065;28;20073;-79
2023/10/08 07:58:20;;;;;;;9.55;4.45;;;;;;;;;;5283614;28;20020;-78
2023/10/08 08:00:51;;;;;;;9.63;4.97;;;;;;;;;;5282118;28;20013;-78
2023/10/08 08:03:24;;;;;;;11.68;5.03;;;;;;;;;;5283237;28;20025;-77
2023/10/08 08:05:55;;;;;;;11.75;5.30;;;;;;;;;;5282938;28;20039;-79
2023/10/08 08:08:27;;;;;;;10.50;4.63;;;;;;;;;;5282244;28;20013;-79
2023/10/08 08:11:03;;;;;;;13.98;6.03;;;;;;;;;;5283371;28;20763;-80
2023/10/08 08:13:34;;;;;;;10.82;4.93;;;;;;;;;;5283246;28;20387;-79
2023/10/08 08:16:18;;;;;;;12.48;4.95;;;;;;;;;;5282199;28;20024;-80
2023/10/08 08:18:51;;;;;;;11.43;4.80;;;;;;;;;;5282750;28;20483;-79
2023/10/08 08:21:23;;;;;;;11.35;5.30;;;;;;;;;;5282544;28;20415;-79
2023/10/08 08:24:04;;;;;;;9.27;5.28;;;;;;;;;;5282812;28;20052;-79
2023/10/08 08:27:00;;;;;;;9.43;5.38;;;;;;;;;;5282656;28;20028;-79
2023/10/08 08:29:44;;;;;;;12.73;5.85;;;;;;;;;;5281999;28;20162;-79
2023/10/08 08:32:21;;;;;;;14.73;6.50;;;;;;;;;;5282533;28;20044;-79
2023/10/08 08:34:52;;;;;;;13.40;6.05;;;;;;;;;;5282162;28;20020;-79
2023/10/08 08:37:26;;;;;;;10.80;5.50;;;;;;;;;;5281929;28;20383;-79
2023/10/08 08:39:57;;;;;;;13.18;6.15;;;;;;;;;;5282541;28;20046;-79
2023/10/08 08:42:30;;;;;;;12.85;6.93;;;;;;;;;;5281749;28;20017;-79
2023/10/08 08:45:08;;;;;;;14.57;7.32;;;;;;;;;;5282267;28;20039;-79
2023/10/08 08:47:44;;;;;;;16.05;7.55;;;;;;;;;;5282326;28;20104;-79
2023/10/08 08:50:17;;;;;;;13.68;7.10;;;;;;;;;;5281943;28;20023;-79
2023/10/08 08:52:48;;;;;;;18.85;8.30;;;;;;;;;;5282057;28;20017;-78
2023/10/08 08:55:20;;;;;;;22.00;8.05;;;;;;;;;;5282506;28;20375;-79
2023/10/08 08:57:52;;;;;;;24.05;8.57;;;;;;;;;;5281293;28;20020;-79
2023/10/08 09:00:28;;;;;;;17.98;8.23;;;;;;;;;;5282351;28;20486;-79
2023/10/08 09:02:59;;;;;;;15.48;8.32;;;;;;;;;;5282161;28;20091;-78
2023/10/08 09:05:40;;;;;;;17.35;8.70;;;;;;;;;;5280766;28;20158;-79
2023/10/08 09:08:12;;;;;;;15.90;8.18;;;;;;;;;;5282017;28;20467;-79
2023/10/08 09:10:52;;;;;;;16.08;8.07;;;;;;;;;;5281388;28;20039;-78
2023/10/08 09:13:23;;;;;;;19.42;8.00;;;;;;;;;;5282059;28;20020;-78
2023/10/08 09:16:03;;;;;;;21.25;8.23;;;;;;;;;;5281863;28;20023;-80
2023/10/08 09:18:35;;;;;;;20.95;8.32;;;;;;;;;;5281112;28;20407;-80
2023/10/08 09:21:14;;;;;;;20.65;8.75;;;;;;;;;;5282004;28;20032;-79
2023/10/08 09:23:54;;;;;;;21.00;9.65;;;;;;;;;;5281593;28;20483;-80
2023/10/08 09:26:26;;;;;;;19.17;9.00;;;;;;;;;;5280918;28;20035;-79
2023/10/08 09:28:58;;;;;;;23.10;9.77;;;;;;;;;;5281696;28;20047;-79
2023/10/08 09:31:35;;;;;;;22.33;9.55;;;;;;;;;;5281025;28;20084;-79
2023/10/08 09:34:06;;;;;;;20.05;9.63;;;;;;;;;;5281645;28;20150;-80
2023/10/08 09:36:38;;;;;;;20.53;9.80;;;;;;;;;;5281577;28;20099;-80
2023/10/08 09:39:19;;;;;;;24.50;10.02;;;;;;;;;;5280849;28;20259;-77
2023/10/08 09:41:53;;;;;;;23.77;11.07;;;;;;;;;;5281444;28;20016;-78
2023/10/08 09:44:24;;;;;;;22.92;10.90;;;;;;;;;;5281562;28;20017;-77
2023/10/08 09:47:10;;;;;;;16.65;9.82;;;;;;;;;;5280625;28;20035;-78
2023/10/08 09:49:56;;;;;;;28.08;12.00;;;;;;;;;;5281342;28;20025;-78
2023/10/08 09:52:33;;;;;;;21.67;10.45;;;;;;;;;;5281444;28;20028;-78
2023/10/08 09:55:10;;;;;;;24.00;11.73;;;;;;;;;;5281430;28;20056;-77
2023/10/08 09:57:41;;;;;;;19.77;10.15;;;;;;;;;;5281555;28;20031;-78
2023/10/08 10:00:18;;;;;;;19.10;9.90;;;;;;;;;;5280761;28;20471;-78
2023/10/08 10:02:49;;;;;;;17.02;10.05;;;;;;;;;;5281245;28;20016;-78
2023/10/08 10:05:21;;;;;;;19.73;9.77;;;;;;;;;;5281711;28;20029;-77
2023/10/08 10:07:55;;;;;;;19.98;10.80;;;;;;;;;;5280282;28;20024;-78
2023/10/08 10:10:39;;;;;;;19.15;9.80;;;;;;;;;;5281165;28;20029;-79
2023/10/08 10:13:10;;;;;;;15.65;9.23;;;;;;;;;;5281242;28;20016;-78
2023/10/08 10:15:42;;;;;;;17.77;9.93;;;;;;;;;;5280463;28;20459;-78
2023/10/08 10:18:33;;;;;;;15.55;9.48;;;;;;;;;;5285207;28;20020;-78
2023/10/08 10:21:12;;;;;;;16.17;9.48;;;;;;;;;;5284352;28;20504;-78
2023/10/08 10:23:44;;;;;;;18.88;10.55;;;;;;;;;;5285341;28;20028;-77
2023/10/08 10:26:26;;;;;;;16.23;10.15;;;;;;;;;;5285470;28;20029;-78
2023/10/08 10:29:15;;;;;;;20.75;11.15;;;;;;;;;;5284215;28;20031;-78
2023/10/08 10:31:47;;;;;;;17.92;9.70;;;;;;;;;;5284537;28;20123;-78
2023/10/08 10:34:30;;;;;;;22.33;11.20;;;;;;;;;;5285172;28;20024;-78
2023/10/08 10:37:19;;;;;;;21.25;11.52;;;;;;;;;;5284003;28;20445;-78
2023/10/08 10:39:52;;;;;;;23.50;11.90;;;;;;;;;;5284368;28;20044;-78
2023/10/08 10:42:26;;;;;;;27.58;11.75;;;;;;;;;;5284347;28;20031;-79
2023/10/08 10:44:58;;;;;;;24.38;11.90;;;;;;;;;;5284641;28;20056;-78
2023/10/08 10:47:42;;;;;;;20.55;11.95;;;;;;;;;;5284954;28;20026;-78
2023/10/08 10:50:26;;;;;;;22.80;11.82;;;;;;;;;;5283863;28;20021;-78
2023/10/08 10:52:58;;;;;;;23.60;13.05;;;;;;;;;;5284595;28;20485;-78
2023/10/08 10:55:32;;;;;;;28.48;13.38;;;;;;;;;;5284608;28;20017;-78
2023/10/08 10:58:11;;;;;;;26.85;12.77;;;;;;;;;;5283725;28;20020;-77
2023/10/08 11:03:16;;;;;;;29.15;13.02;;;;;;;;;;5283925;28;20025;-78
2023/10/08 11:05:51;;;;;;;30.45;13.60;;;;;;;;;;5283799;28;20115;-79
2023/10/08 11:08:23;;;;;;;21.13;11.75;;;;;;;;;;5284872;28;20589;-78
2023/10/08 11:10:58;;;;;;;23.20;11.07;;;;;;;;;;5283517;28;20391;-78
2023/10/08 11:13:37;;;;;;;26.42;12.60;;;;;;;;;;5284504;28;20023;-78
2023/10/08 11:16:09;;;;;;;24.25;11.48;;;;;;;;;;5284368;28;20024;-78
2023/10/08 11:18:45;;;;;;;24.80;11.10;;;;;;;;;;5283338;28;20020;-78
2023/10/08 11:21:22;;;;;;;21.50;10.95;;;;;;;;;;5284298;28;20356;-78
2023/10/08 11:23:55;;;;;;;25.38;9.93;;;;;;;;;;5283986;28;20514;-79
2023/10/08 11:26:32;;;;;;;20.60;10.25;;;;;;;;;;5283288;28;20044;-78
2023/10/08 11:29:05;;;;;;;24.85;10.30;;;;;;;;;;5283664;28;20459;-78
2023/10/08 11:31:39;;;;;;;22.23;10.40;;;;;;;;;;5283005;28;20049;-78
2023/10/08 11:34:13;;;;;;;18.77;9.45;;;;;;;;;;5283531;28;20044;-78
2023/10/08 11:36:52;;;;;;;20.38;10.20;;;;;;;;;;5283750;28;20104;-79
2023/10/08 11:39:30;;;;;;;18.88;9.30;;;;;;;;;;5283060;28;20434;-78
2023/10/08 11:42:03;;;;;;;18.13;9.50;;;;;;;;;;5283779;28;20386;-78
2023/10/08 11:44:37;;;;;;;23.27;10.38;;;;;;;;;;5283852;28;20031;-78
2023/10/08 11:47:12;;;;;;;21.13;10.43;;;;;;;;;;5282700;28;20055;-78
2023/10/08 11:49:47;;;;;;;19.00;10.68;;;;;;;;;;5283279;28;20466;-77
2023/10/08 11:52:21;;;;;;;18.98;10.98;;;;;;;;;;5282871;28;20528;-78
2023/10/08 11:54:53;;;;;;;18.48;10.55;;;;;;;;;;5282980;28;20095;-78
2023/10/08 11:57:25;;;;;;;17.30;10.50;;;;;;;;;;5283311;28;20013;-77
2023/10/08 11:59:58;;;;;;;19.70;9.43;;;;;;;;;;5282473;28;20023;-77
2023/10/08 12:02:29;;;;;;;20.15;9.98;;;;;;;;;;5283084;28;20074;-77
2023/10/08 12:05:02;;;;;;;20.17;10.23;;;;;;;;;;5282855;28;20028;-78
2023/10/08 12:07:36;;;;;;;14.93;9.05;;;;;;;;;;5282557;28;20278;-76
2023/10/08 12:10:08;;;;;;;17.40;9.18;;;;;;;;;;5283186;28;20052;-77
2023/10/08 12:12:40;;;;;;;13.18;9.20;;;;;;;;;;5283131;28;20425;-77
2023/10/08 12:15:12;;;;;;;18.30;9.63;;;;;;;;;;5282033;28;20019;-77
2023/10/08 12:17:43;;;;;;;16.77;10.52;;;;;;;;;;5282899;28;20086;-77
2023/10/08 12:20:25;;;;;;;22.10;10.68;;;;;;;;;;5282619;28;20016;-77
2023/10/08 12:22:56;;;;;;;14.80;8.80;;;;;;;;;;5282702;28;20024;-76
2023/10/08 12:25:27;;;;;;;13.60;8.13;;;;;;;;;;5282819;28;20357;-77
2023/10/08 12:28:04;;;;;;;17.23;9.33;;;;;;;;;;5281814;28;20317;-77
2023/10/08 12:30:41;;;;;;;15.15;7.78;;;;;;;;;;5282627;28;20378;-78
2023/10/08 12:33:15;;;;;;;14.85;8.52;;;;;;;;;;5278974;28;20032;-78
2023/10/08 12:35:49;;;;;;;15.85;8.55;;;;;;;;;;5281101;28;20032;-79
2023/10/08 12:38:27;;;;;;;12.73;7.55;;;;;;;;;;5282218;28;20103;-79
2023/10/08 12:41:08;;;;;;;15.77;9.18;;;;;;;;;;5282007;28;20032;-78
2023/10/08 12:43:42;;;;;;;13.93;8.27;;;;;;;;;;5281825;28;20047;-78
2023/10/08 12:46:23;;;;;;;13.02;7.80;;;;;;;;;;5282207;28;20021;-78
2023/10/08 12:48:55;;;;;;;18.48;8.30;;;;;;;;;;5280966;28;20031;-79
2023/10/08 12:51:26;;;;;;;13.25;8.32;;;;;;;;;;5282018;28;20378;-79
2023/10/08 12:54:05;;;;;;;16.55;8.57;;;;;;;;;;5282218;28;20367;-79
2023/10/08 12:56:48;;;;;;;13.30;7.57;;;;;;;;;;5281345;28;20021;-78
2023/10/08 12:59:23;;;;;;;12.02;7.18;;;;;;;;;;5282103;28;20041;-79
2023/10/08 13:01:54;;;;;;;13.73;8.50;;;;;;;;;;5281740;28;20067;-78
2023/10/08 13:04:34;;;;;;;12.18;8.32;;;;;;;;;;5281267;28;20044;-79
2023/10/08 13:07:05;;;;;;;16.42;9.68;;;;;;;;;;5281991;28;20064;-79
2023/10/08 13:09:37;;;;;;;18.75;10.57;;;;;;;;;;5280854;28;20036;-79
2023/10/08 13:12:10;;;;;;;17.17;10.10;;;;;;;;;;5281790;28;20033;-79
2023/10/08 13:14:44;;;;;;;16.75;10.35;;;;;;;;;;5281553;28;20349;-79
2023/10/08 13:17:15;;;;;;;26.25;12.18;;;;;;;;;;5279697;28;20523;-79
2023/10/08 13:19:46;;;;;;;34.55;11.25;;;;;;;;;;5280975;28;20016;-79
2023/10/08 13:22:19;;;;;;;21.70;12.57;;;;;;;;;;5280663;28;20070;-79
2023/10/08 13:24:50;;;;;;;18.58;11.32;;;;;;;;;;5280809;28;20661;-79
2023/10/08 13:27:23;;;;;;;19.97;11.77;;;;;;;;;;5282150;28;20029;-79
2023/10/08 13:29:55;;;;;;;23.30;12.85;;;;;;;;;;5281616;28;20258;-79
2023/10/08 13:32:26;;;;;;;25.07;13.87;;;;;;;;;;5280676;28;20521;-78
2023/10/08 13:34:58;;;;;;;21.85;12.98;;;;;;;;;;5281519;28;20648;-79
2023/10/08 13:37:30;;;;;;;21.15;13.77;;;;;;;;;;5281981;28;20047;-79
2023/10/08 13:40:01;;;;;;;24.88;13.23;;;;;;;;;;5280638;28;20044;-78
2023/10/08 13:42:32;;;;;;;21.73;12.20;;;;;;;;;;5281630;28;20537;-79
2023/10/08 13:45:07;;;;;;;19.87;12.83;;;;;;;;;;5280568;28;20024;-79
2023/10/08 13:47:39;;;;;;;25.25;14.05;;;;;;;;;;5281718;28;20332;-78
2023/10/08 13:50:12;;;;;;;17.83;11.82;;;;;;;;;;5282296;28;20013;-79
2023/10/08 13:52:44;;;;;;;24.27;13.63;;;;;;;;;;5285120;28;20024;-78
2023/10/08 13:55:19;;;;;;;19.60;12.40;;;;;;;;;;5285960;28;20027;-79
2023/10/08 13:57:50;;;;;;;24.20;13.88;;;;;;;;;;5285170;28;20016;-79
2023/10/08 14:00:25;;;;;;;22.40;14.45;;;;;;;;;;5277443;28;20012;-78
2023/10/08 14:02:56;;;;;;;25.20;14.73;;;;;;;;;;5263999;28;20120;-78
2023/10/08 14:05:29;;;;;;;19.05;12.27;;;;;;;;;;5264531;28;20454;-79
2023/10/08 14:08:02;;;;;;;26.15;14.98;;;;;;;;;;5263605;28;20017;-78
2023/10/08 14:10:33;;;;;;;25.83;13.70;;;;;;;;;;5264828;28;20092;-78
2023/10/08 14:13:05;;;;;;;24.07;14.90;;;;;;;;;;5264158;28;20524;-78
2023/10/08 14:15:43;;;;;;;24.20;14.65;;;;;;;;;;5264056;28;20275;-78
2023/10/08 14:18:17;;;;;;;21.70;13.38;;;;;;;;;;5264713;28;20475;-78
2023/10/08 14:20:53;;;;;;;24.00;15.32;;;;;;;;;;5262991;28;20063;-78
2023/10/08 14:23:25;;;;;;;22.48;14.77;;;;;;;;;;5264579;28;20523;-78
2023/10/08 14:26:03;;;;;;;24.33;13.50;;;;;;;;;;5264278;28;20127;-78
2023/10/08 14:28:40;;;;;;;26.52;14.18;;;;;;;;;;5263409;28;20434;-78
2023/10/08 14:31:18;;;;;;;24.38;13.60;;;;;;;;;;5263391;28;20052;-75
2023/10/08 14:33:55;;;;;;;24.73;15.07;;;;;;;;;;5264833;28;20021;-75
2023/10/08 14:44:57;;;;;;;23.73;13.95;;;;;;;;;;5263962;28;20021;-74
2023/10/08 14:47:29;;;;;;;25.13;14.00;;;;;;;;;;5263843;28;20029;-73
2023/10/08 14:50:03;;;;;;;28.98;14.45;;;;;;;;;;5263045;28;20275;-77
2023/10/08 14:52:34;;;;;;;21.67;13.73;;;;;;;;;;5264109;28;20032;-76
2023/10/08 14:55:06;;;;;;;36.00;15.40;;;;;;;;;;5263046;28;20024;-76
2023/10/08 14:57:38;;;;;;;22.23;14.25;;;;;;;;;;5263775;28;20025;-77
2023/10/08 15:00:10;;;;;;;27.60;14.55;;;;;;;;;;5263694;28;20031;-76
2023/10/08 15:02:42;;;;;;;21.45;13.70;;;;;;;;;;5262400;28;20452;-76
2023/10/08 15:05:14;;;;;;;23.73;15.32;;;;;;;;;;5263382;28;20147;-76
2023/10/08 15:07:45;;;;;;;23.70;14.55;;;;;;;;;;5262971;28;20420;-76
2023/10/08 15:10:17;;;;;;;21.90;13.20;;;;;;;;;;5262931;28;20044;-76
2023/10/08 15:12:49;;;;;;;23.92;14.57;;;;;;;;;;5262895;28;20040;-76
2023/10/08 15:15:24;;;;;;;29.73;16.15;;;;;;;;;;5263925;28;20047;-76
2023/10/08 15:17:55;;;;;;;23.83;14.52;;;;;;;;;;5262685;28;20017;-76
2023/10/08 15:20:27;;;;;;;24.93;14.73;;;;;;;;;;5263432;28;20071;-76
2023/10/08 15:22:58;;;;;;;25.57;14.50;;;;;;;;;;5263291;28;20269;-76
2023/10/08 15:25:29;;;;;;;26.53;14.00;;;;;;;;;;5262304;28;20303;-75
2023/10/08 15:28:01;;;;;;;18.30;12.37;;;;;;;;;;5263425;28;20695;-75
2023/10/08 15:30:32;;;;;;;23.13;13.32;;;;;;;;;;5262415;28;20267;-77
2023/10/08 15:33:06;;;;;;;24.35;15.40;;;;;;;;;;5263019;28;20156;-76
2023/10/08 15:35:37;;;;;;;23.45;13.38;;;;;;;;;;5263014;28;20107;-76
2023/10/08 15:38:09;;;;;;;21.98;14.38;;;;;;;;;;5262339;28;20108;-76
2023/10/08 15:40:44;;;;;;;25.80;13.27;;;;;;;;;;5262861;28;20024;-77
2023/10/08 15:43:15;;;;;;;26.48;13.98;;;;;;;;;;5263074;28;20438;-77
2023/10/08 15:45:47;;;;;;;24.23;14.60;;;;;;;;;;5261740;28;20621;-77
2023/10/08 15:48:19;;;;;;;20.20;13.15;;;;;;;;;;5263404;28;20259;-77
2023/10/08 15:50:50;;;;;;;21.83;14.63;;;;;;;;;;5262356;28;20021;-77
2023/10/08 15:53:21;;;;;;;23.93;14.50;;;;;;;;;;5262312;28;20464;-76
2023/10/08 15:55:52;;;;;;;25.87;15.27;;;;;;;;;;5262267;28;20279;-75
2023/10/08 15:58:24;;;;;;;21.93;13.30;;;;;;;;;;5261734;28;20361;-76
2023/10/08 16:00:55;;;;;;;20.73;13.90;;;;;;;;;;5262666;28;20275;-76
2023/10/08 16:03:26;;;;;;;24.27;14.33;;;;;;;;;;5262512;28;20027;-76
2023/10/08 16:05:57;;;;;;;24.50;15.07;;;;;;;;;;5261552;28;20295;-76
2023/10/08 16:08:28;;;;;;;22.13;13.40;;;;;;;;;;5262491;28;20021;-76
2023/10/08 16:10:59;;;;;;;24.67;13.27;;;;;;;;;;5262371;28;20321;-77
2023/10/08 16:13:31;;;;;;;23.90;13.00;;;;;;;;;;5260828;28;20275;-77
2023/10/08 16:16:02;;;;;;;21.05;12.32;;;;;;;;;;5262056;28;20738;-77
2023/10/08 16:18:34;;;;;;;28.13;13.57;;;;;;;;;;5262408;28;20024;-77
2023/10/08 16:21:11;;;;;;;21.50;12.95;;;;;;;;;;5261443;28;20112;-77
2023/10/08 16:23:42;;;;;;;25.85;13.38;;;;;;;;;;5262322;28;20092;-76